createdAt,value
2018-11-23T00:00:22.740Z,-1.3
2018-11-23T00:01:29.662Z,-1.2
2018-11-23T00:02:36.331Z,-1.2
2018-11-23T00:03:43.535Z,-1.2
2018-11-23T00:04:50.471Z,-1.2
2018-11-23T00:05:57.675Z,-1.2
2018-11-23T00:07:04.610Z,-1.3
2018-11-23T00:08:11.530Z,-1.3
2018-11-23T00:09:18.749Z,-1.3
2018-11-23T00:10:25.688Z,-1.3
2018-11-23T00:11:32.901Z,-1.3
2018-11-23T00:12:39.560Z,-1.4
2018-11-23T00:13:46.261Z,-1.4
2018-11-23T00:14:53.441Z,-1.4
2018-11-23T00:16:00.385Z,-1.4
2018-11-23T00:17:07.318Z,-1.4
2018-11-23T00:18:14.269Z,-1.4
2018-11-23T00:19:21.470Z,-1.4
2018-11-23T00:20:28.129Z,-1.4
2018-11-23T00:21:35.062Z,-1.4
2018-11-23T00:22:41.756Z,-1.5
2018-11-23T00:23:48.692Z,-1.5
2018-11-23T00:24:55.909Z,-1.5
2018-11-23T00:26:03.104Z,-1.6
2018-11-23T00:27:09.770Z,-1.6
2018-11-23T00:28:16.707Z,-1.6
2018-11-23T00:29:23.645Z,-1.6
2018-11-23T00:30:30.565Z,-1.6
2018-11-23T00:31:37.777Z,-1.6
2018-11-23T00:32:44.978Z,-1.6
2018-11-23T00:33:52.214Z,-1.5
2018-11-23T00:34:59.420Z,-1.5
2018-11-23T00:36:05.800Z,-1.5
2018-11-23T00:37:12.743Z,-1.6
2018-11-23T00:38:19.961Z,-1.6
2018-11-23T00:39:27.165Z,-1.6
2018-11-23T00:40:34.106Z,-1.6
2018-11-23T00:41:41.305Z,-1.6
2018-11-23T00:42:48.523Z,-1.6
2018-11-23T00:43:55.457Z,-1.6
2018-11-23T00:45:02.409Z,-1.6
2018-11-23T00:46:09.609Z,-1.6
2018-11-23T00:47:16.817Z,-1.6
2018-11-23T00:48:23.741Z,-1.6
2018-11-23T00:49:30.409Z,-1.7
2018-11-23T00:50:37.335Z,-1.6
2018-11-23T00:51:44.000Z,-1.6
2018-11-23T00:52:51.201Z,-1.7
2018-11-23T00:53:58.413Z,-1.6
2018-11-23T00:55:05.613Z,-1.7
2018-11-23T00:56:12.830Z,-1.7
2018-11-23T00:57:19.751Z,-1.7
2018-11-23T00:58:26.160Z,-1.7
2018-11-23T00:59:33.092Z,-1.7
2018-11-23T01:00:40.302Z,-1.7
2018-11-23T01:01:47.502Z,-1.7
2018-11-23T01:02:54.958Z,-1.7
2018-11-23T01:04:01.869Z,-1.7
2018-11-23T01:05:08.819Z,-1.7
2018-11-23T01:06:15.751Z,-1.7
2018-11-23T01:07:22.967Z,-1.7
2018-11-23T01:08:30.163Z,-1.7
2018-11-23T01:09:37.104Z,-1.7
2018-11-23T01:10:44.312Z,-1.7
2018-11-23T01:11:50.984Z,-1.7
2018-11-23T01:12:58.189Z,-1.7
2018-11-23T01:14:04.870Z,-1.7
2018-11-23T01:15:11.520Z,-1.7
2018-11-23T01:16:18.460Z,-1.7
2018-11-23T01:17:25.391Z,-1.7
2018-11-23T01:18:32.331Z,-1.6
2018-11-23T01:19:38.723Z,-1.6
2018-11-23T01:20:45.934Z,-1.6
2018-11-23T01:21:52.863Z,-1.5
2018-11-23T01:23:00.082Z,-1.5
2018-11-23T01:24:07.008Z,-1.5
2018-11-23T01:25:14.231Z,-1.5
2018-11-23T01:26:20.878Z,-1.5
2018-11-23T01:27:27.272Z,-1.5
2018-11-23T01:28:33.927Z,-1.4
2018-11-23T01:29:40.871Z,-1.5
2018-11-23T01:30:48.068Z,-1.5
2018-11-23T01:31:55.291Z,-1.5
2018-11-23T01:33:02.218Z,-1.4
2018-11-23T01:34:09.438Z,-1.4
2018-11-23T01:35:16.647Z,-1.4
2018-11-23T01:36:23.860Z,-1.4
2018-11-23T01:37:31.064Z,-1.3
2018-11-23T01:38:37.999Z,-1.3
2018-11-23T01:39:44.921Z,-1.3
2018-11-23T01:40:51.849Z,-1.2
2018-11-23T01:41:59.055Z,-1.2
2018-11-23T01:43:06.269Z,-1.2
2018-11-23T01:44:13.484Z,-1.1
2018-11-23T01:45:20.432Z,-1.1
2018-11-23T01:46:27.366Z,-1.1
2018-11-23T01:47:34.324Z,-1.1
2018-11-23T01:48:40.981Z,-1.1
2018-11-23T01:49:48.197Z,-1.1
2018-11-23T01:50:55.123Z,-1
2018-11-23T01:52:01.512Z,-1
2018-11-23T01:53:08.437Z,-1
2018-11-23T01:54:15.658Z,-0.9
2018-11-23T01:55:22.588Z,-0.9
2018-11-23T01:56:29.268Z,-0.9
2018-11-23T01:57:36.462Z,-0.9
2018-11-23T01:58:43.671Z,-0.8
2018-11-23T01:59:50.890Z,-0.8
2018-11-23T02:00:58.099Z,-0.7
2018-11-23T02:02:05.307Z,-0.7
2018-11-23T02:03:12.529Z,-0.7
2018-11-23T02:04:19.724Z,-0.6
2018-11-23T02:05:26.657Z,-0.5
2018-11-23T02:06:33.316Z,-0.5
2018-11-23T02:07:40.535Z,-0.5
2018-11-23T02:08:47.742Z,-0.5
2018-11-23T02:09:54.964Z,-0.5
2018-11-23T02:11:01.893Z,-0.5
2018-11-23T02:12:09.104Z,-0.5
2018-11-23T02:13:16.307Z,-0.5
2018-11-23T02:14:22.964Z,-0.5
2018-11-23T02:15:29.608Z,-0.5
2018-11-23T02:16:36.827Z,-0.5
2018-11-23T02:17:43.751Z,-0.5
2018-11-23T02:18:50.993Z,-0.5
2018-11-23T02:19:57.655Z,-0.5
2018-11-23T02:21:04.599Z,-0.5
2018-11-23T02:22:11.798Z,-0.4
2018-11-23T02:23:19.014Z,-0.4
2018-11-23T02:24:26.213Z,-0.4
2018-11-23T02:25:33.421Z,-0.3
2018-11-23T02:26:40.067Z,-0.3
2018-11-23T02:27:47.017Z,-0.2
2018-11-23T02:28:53.941Z,-0.2
2018-11-23T02:30:00.342Z,-0.2
2018-11-23T02:31:07.551Z,-0.3
2018-11-23T02:32:14.766Z,-0.3
2018-11-23T02:33:21.972Z,-0.2
2018-11-23T02:34:28.355Z,-0.2
2018-11-23T02:35:35.555Z,-0.2
2018-11-23T02:36:42.230Z,-0.2
2018-11-23T02:37:49.161Z,-0.1
2018-11-23T02:38:56.108Z,-0.1
2018-11-23T02:40:03.037Z,-0.1
2018-11-23T02:41:10.253Z,-0.2
2018-11-23T02:42:17.188Z,-0.2
2018-11-23T02:43:24.403Z,-0.2
2018-11-23T02:44:31.322Z,-0.2
2018-11-23T02:45:38.326Z,-0.2
2018-11-23T02:46:45.528Z,-0.2
2018-11-23T02:47:52.440Z,-0.2
2018-11-23T02:48:59.638Z,-0.2
2018-11-23T02:50:06.851Z,-0.2
2018-11-23T02:51:14.055Z,-0.2
2018-11-23T02:52:21.278Z,-0.2
2018-11-23T02:53:27.930Z,-0.2
2018-11-23T02:54:35.151Z,-0.2
2018-11-23T02:55:42.077Z,-0.2
2018-11-23T02:56:49.292Z,-0.2
2018-11-23T02:57:56.491Z,-0.2
2018-11-23T02:59:03.431Z,-0.2
2018-11-23T03:00:10.094Z,-0.2
2018-11-23T03:01:16.774Z,-0.2
2018-11-23T03:02:23.436Z,-0.2
2018-11-23T03:03:30.648Z,-0.2
2018-11-23T03:04:37.851Z,-0.2
2018-11-23T03:05:44.788Z,-0.2
2018-11-23T03:06:51.712Z,-0.2
2018-11-23T03:07:58.651Z,-0.2
2018-11-23T03:09:05.848Z,-0.2
2018-11-23T03:10:13.066Z,-0.2
2018-11-23T03:11:19.713Z,-0.2
2018-11-23T03:12:26.655Z,-0.2
2018-11-23T03:13:33.853Z,-0.2
2018-11-23T03:14:41.293Z,-0.2
2018-11-23T03:15:48.504Z,-0.2
2018-11-23T03:16:55.464Z,-0.2
2018-11-23T03:18:01.866Z,-0.3
2018-11-23T03:19:08.804Z,-0.3
2018-11-23T03:20:15.455Z,-0.2
2018-11-23T03:21:22.407Z,-0.2
2018-11-23T03:22:29.329Z,-0.2
2018-11-23T03:23:36.550Z,-0.2
2018-11-23T03:24:43.489Z,-0.2
2018-11-23T03:25:50.705Z,-0.2
2018-11-23T03:26:57.908Z,-0.2
2018-11-23T03:28:05.145Z,-0.2
2018-11-23T03:29:12.356Z,-0.2
2018-11-23T03:30:19.238Z,-0.2
2018-11-23T03:31:25.883Z,-0.2
2018-11-23T03:32:32.823Z,-0.2
2018-11-23T03:33:40.038Z,-0.2
2018-11-23T03:34:46.716Z,-0.2
2018-11-23T03:35:53.643Z,-0.2
2018-11-23T03:37:00.858Z,-0.2
2018-11-23T03:38:07.519Z,-0.3
2018-11-23T03:39:14.750Z,-0.3
2018-11-23T03:40:21.957Z,-0.3
2018-11-23T03:41:29.157Z,-0.3
2018-11-23T03:42:36.362Z,-0.3
2018-11-23T03:43:43.573Z,-0.3
2018-11-23T03:44:50.775Z,-0.3
2018-11-23T03:45:57.986Z,-0.3
2018-11-23T03:47:04.919Z,-0.4
2018-11-23T03:48:11.861Z,-0.4
2018-11-23T03:49:19.055Z,-0.4
2018-11-23T03:50:25.718Z,-0.5
2018-11-23T03:51:32.651Z,-0.5
2018-11-23T03:52:39.605Z,-0.6
2018-11-23T03:53:46.265Z,-0.6
2018-11-23T03:54:53.484Z,-0.6
2018-11-23T03:56:00.137Z,-0.6
2018-11-23T03:57:07.342Z,-0.6
2018-11-23T03:58:14.242Z,-0.6
2018-11-23T03:59:21.456Z,-0.7
2018-11-23T04:00:28.098Z,-0.7
2018-11-23T04:01:34.756Z,-0.7
2018-11-23T04:02:41.454Z,-0.7
2018-11-23T04:03:48.117Z,-0.7
2018-11-23T04:04:55.320Z,-0.7
2018-11-23T04:06:02.522Z,-0.7
2018-11-23T04:07:09.723Z,-0.8
2018-11-23T04:08:16.667Z,-0.8
2018-11-23T04:09:23.314Z,-0.8
2018-11-23T04:10:30.240Z,-0.8
2018-11-23T04:11:36.909Z,-0.9
2018-11-23T04:12:43.852Z,-0.9
2018-11-23T04:13:50.784Z,-0.9
2018-11-23T04:14:57.459Z,-0.9
2018-11-23T04:16:04.377Z,-0.9
2018-11-23T04:17:11.317Z,-0.9
2018-11-23T04:18:18.252Z,-1
2018-11-23T04:19:25.445Z,-1
2018-11-23T04:20:32.648Z,-1
2018-11-23T04:21:39.868Z,-1
2018-11-23T04:22:46.830Z,-1
2018-11-23T04:23:53.775Z,-1.1
2018-11-23T04:25:00.977Z,-1.1
2018-11-23T04:26:08.189Z,-1.1
2018-11-23T04:27:15.121Z,-1.1
2018-11-23T04:28:21.776Z,-1.2
2018-11-23T04:29:28.718Z,-1.3
2018-11-23T04:30:35.680Z,-1.3
2018-11-23T04:31:42.345Z,-1.3
2018-11-23T04:32:49.294Z,-1.4
2018-11-23T04:33:56.219Z,-1.4
2018-11-23T04:35:03.163Z,-1.3
2018-11-23T04:36:10.371Z,-1.4
2018-11-23T04:37:17.065Z,-1.4
2018-11-23T04:38:23.987Z,-1.4
2018-11-23T04:39:30.928Z,-1.4
2018-11-23T04:40:38.139Z,-1.4
2018-11-23T04:41:47.047Z,-1.4
2018-11-23T04:42:53.966Z,-1.4
2018-11-23T04:44:00.909Z,-1.4
2018-11-23T04:45:07.831Z,-1.4
2018-11-23T04:46:14.517Z,-1.4
2018-11-23T04:47:21.453Z,-1.4
2018-11-23T04:48:28.669Z,-1.5
2018-11-23T04:49:35.873Z,-1.5
2018-11-23T04:50:42.823Z,-1.6
2018-11-23T04:51:49.763Z,-1.6
2018-11-23T04:52:57.027Z,-1.7
2018-11-23T04:54:04.223Z,-1.7
2018-11-23T04:55:11.168Z,-1.8
2018-11-23T04:56:18.368Z,-1.8
2018-11-23T04:57:25.591Z,-1.8
2018-11-23T04:58:32.787Z,-1.9
2018-11-23T04:59:39.469Z,-1.9
2018-11-23T05:00:46.122Z,-1.8
2018-11-23T05:01:53.332Z,-1.8
2018-11-23T05:03:00.533Z,-1.8
2018-11-23T05:04:07.751Z,-1.8
2018-11-23T05:05:14.691Z,-1.8
2018-11-23T05:06:21.635Z,-1.8
2018-11-23T05:07:28.843Z,-1.8
2018-11-23T05:08:36.065Z,-1.8
2018-11-23T05:09:42.990Z,-1.8
2018-11-23T05:10:49.939Z,-1.8
2018-11-23T05:11:56.865Z,-1.8
2018-11-23T05:13:03.812Z,-1.8
2018-11-23T05:14:10.743Z,-1.8
2018-11-23T05:15:17.126Z,-1.8
2018-11-23T05:16:24.334Z,-1.8
2018-11-23T05:17:31.541Z,-1.8
2018-11-23T05:18:38.744Z,-1.9
2018-11-23T05:19:45.685Z,-1.9
2018-11-23T05:20:52.342Z,-1.9
2018-11-23T05:21:59.278Z,-1.9
2018-11-23T05:23:06.478Z,-1.9
2018-11-23T05:24:13.677Z,-1.9
2018-11-23T05:25:20.612Z,-1.9
2018-11-23T05:26:27.825Z,-1.9
2018-11-23T05:27:34.753Z,-1.8
2018-11-23T05:28:41.623Z,-1.8
2018-11-23T05:29:49.533Z,-1.8
2018-11-23T05:30:56.214Z,-1.7
2018-11-23T05:32:02.864Z,-1.7
2018-11-23T05:33:09.779Z,-1.7
2018-11-23T05:34:16.720Z,-1.7
2018-11-23T05:35:23.943Z,-1.6
2018-11-23T05:36:31.180Z,-1.6
2018-11-23T05:37:37.871Z,-1.6
2018-11-23T05:38:44.804Z,-1.6
2018-11-23T05:39:51.471Z,-1.6
2018-11-23T05:40:58.679Z,-1.6
2018-11-23T05:42:05.627Z,-1.5
2018-11-23T05:43:12.557Z,-1.6
2018-11-23T05:44:18.941Z,-1.6
2018-11-23T05:45:26.146Z,-1.6
2018-11-23T05:46:33.347Z,-1.5
2018-11-23T05:47:40.273Z,-1.5
2018-11-23T05:48:47.228Z,-1.4
2018-11-23T05:49:54.154Z,-1.4
2018-11-23T05:51:01.100Z,-1.4
2018-11-23T05:52:08.302Z,-1.4
2018-11-23T05:53:14.963Z,-1.4
2018-11-23T05:54:21.887Z,-1.4
2018-11-23T05:55:28.547Z,-1.4
2018-11-23T05:56:35.745Z,-1.3
2018-11-23T05:57:42.703Z,-1.3
2018-11-23T05:58:49.628Z,-1.2
2018-11-23T05:59:56.569Z,-1.1
2018-11-23T06:01:03.772Z,-1
2018-11-23T06:02:10.779Z,-1
2018-11-23T06:03:17.148Z,-0.9
2018-11-23T06:04:23.548Z,-0.7
2018-11-23T06:05:30.475Z,-0.6
2018-11-23T06:06:42.909Z,-0.5
2018-11-23T06:07:50.102Z,-0.5
2018-11-23T06:08:57.045Z,-0.4
2018-11-23T06:10:03.977Z,-0.4
2018-11-23T06:11:10.859Z,-0.4
2018-11-23T06:12:18.064Z,-0.4
2018-11-23T06:13:24.732Z,-0.3
2018-11-23T06:14:31.938Z,-0.3
2018-11-23T06:15:45.885Z,-0.2
2018-11-23T06:16:52.826Z,-0.2
2018-11-23T06:17:59.768Z,0
2018-11-23T06:19:06.695Z,0.1
2018-11-23T06:20:13.638Z,0.1
2018-11-23T06:21:20.571Z,0.1
2018-11-23T06:22:27.502Z,0.2
2018-11-23T06:23:34.707Z,0.2
2018-11-23T06:24:41.647Z,0.2
2018-11-23T06:25:48.572Z,0.2
2018-11-23T06:26:55.785Z,0.3
2018-11-23T06:28:02.721Z,0.3
2018-11-23T06:29:09.935Z,0.4
2018-11-23T06:30:16.861Z,0.4
2018-11-23T06:31:24.084Z,0.3
2018-11-23T06:32:30.748Z,0.3
2018-11-23T06:33:37.688Z,0.3
2018-11-23T06:34:44.624Z,0.4
2018-11-23T06:35:51.569Z,0.4
2018-11-23T06:36:58.782Z,0.4
2018-11-23T06:38:06.002Z,0.4
2018-11-23T06:39:12.928Z,0.4
2018-11-23T06:40:19.863Z,0.4
2018-11-23T06:41:27.070Z,0.4
2018-11-23T06:42:33.735Z,0.4
2018-11-23T06:43:40.673Z,0.4
2018-11-23T06:44:47.339Z,0.4
2018-11-23T06:45:54.263Z,0.5
2018-11-23T06:47:01.484Z,0.5
2018-11-23T06:48:08.708Z,0.5
2018-11-23T06:49:15.655Z,0.5
2018-11-23T06:50:22.585Z,0.5
2018-11-23T06:51:29.788Z,0.5
2018-11-23T06:52:36.727Z,0.5
2018-11-23T06:53:43.397Z,0.5
2018-11-23T06:54:50.608Z,0.5
2018-11-23T06:55:57.821Z,0.5
2018-11-23T06:57:04.755Z,0.5
2018-11-23T06:58:11.972Z,0.6
2018-11-23T06:59:18.905Z,0.6
2018-11-23T07:00:25.833Z,0.6
2018-11-23T07:01:32.967Z,0.6
2018-11-23T07:02:39.635Z,0.6
2018-11-23T07:03:46.562Z,0.6
2018-11-23T07:04:53.503Z,0.6
2018-11-23T07:06:00.732Z,0.6
2018-11-23T07:07:07.681Z,0.6
2018-11-23T07:08:14.882Z,0.6
2018-11-23T07:09:22.076Z,0.6
2018-11-23T07:10:29.004Z,0.6
2018-11-23T07:11:36.219Z,0.6
2018-11-23T07:12:43.420Z,0.6
2018-11-23T07:13:50.371Z,0.6
2018-11-23T07:14:57.575Z,0.6
2018-11-23T07:16:04.520Z,0.6
2018-11-23T07:17:11.445Z,0.6
2018-11-23T07:18:18.646Z,0.6
2018-11-23T07:19:25.580Z,0.7
2018-11-23T07:20:32.809Z,0.7
2018-11-23T07:21:39.756Z,0.7
2018-11-23T07:22:46.998Z,0.7
2018-11-23T07:23:54.199Z,0.7
2018-11-23T07:25:00.873Z,0.7
2018-11-23T07:26:07.799Z,0.7
2018-11-23T07:27:14.461Z,0.7
2018-11-23T07:28:21.672Z,0.7
2018-11-23T07:29:28.907Z,0.7
2018-11-23T07:30:35.560Z,0.7
2018-11-23T07:31:42.483Z,0.7
2018-11-23T07:32:49.689Z,0.8
2018-11-23T07:33:56.905Z,0.8
2018-11-23T07:35:04.105Z,0.8
2018-11-23T07:36:11.321Z,0.8
2018-11-23T07:37:18.520Z,0.8
2018-11-23T07:38:25.460Z,0.8
2018-11-23T07:39:32.662Z,0.8
2018-11-23T07:40:39.069Z,0.8
2018-11-23T07:41:47.462Z,0.8
2018-11-23T07:42:54.410Z,0.8
2018-11-23T07:44:01.614Z,0.8
2018-11-23T07:45:08.834Z,0.8
2018-11-23T07:46:15.767Z,0.8
2018-11-23T07:47:22.991Z,0.8
2018-11-23T07:48:30.232Z,0.8
2018-11-23T07:49:36.885Z,0.8
2018-11-23T07:50:43.823Z,0.8
2018-11-23T07:51:51.045Z,0.8
2018-11-23T07:52:58.258Z,0.8
2018-11-23T07:54:05.200Z,0.8
2018-11-23T07:55:12.137Z,0.8
2018-11-23T07:56:19.115Z,0.8
2018-11-23T07:57:26.318Z,0.8
2018-11-23T07:58:33.266Z,0.8
2018-11-23T07:59:40.245Z,0.8
2018-11-23T08:00:47.474Z,0.8
2018-11-23T08:01:55.032Z,0.8
2018-11-23T08:03:02.273Z,0.8
2018-11-23T08:04:09.207Z,0.9
2018-11-23T08:05:16.144Z,0.8
2018-11-23T08:06:23.378Z,0.9
2018-11-23T08:07:30.321Z,0.9
2018-11-23T08:08:36.986Z,0.9
2018-11-23T08:09:43.954Z,0.9
2018-11-23T08:10:51.159Z,0.9
2018-11-23T08:11:58.378Z,0.9
2018-11-23T08:13:05.589Z,0.9
2018-11-23T08:14:11.982Z,0.9
2018-11-23T08:15:18.910Z,1
2018-11-23T08:16:25.867Z,1
2018-11-23T08:17:33.084Z,1
2018-11-23T08:18:39.770Z,1
2018-11-23T08:19:48.000Z,1
2018-11-23T08:20:55.222Z,1
2018-11-23T08:22:02.460Z,1.1
2018-11-23T08:23:09.161Z,1.1
2018-11-23T08:24:15.554Z,1.1
2018-11-23T08:25:22.772Z,1
2018-11-23T08:26:29.163Z,1.1
2018-11-23T08:27:36.372Z,1
2018-11-23T08:28:43.302Z,1
2018-11-23T08:29:50.257Z,1
2018-11-23T08:30:57.187Z,1
2018-11-23T08:32:04.145Z,1
2018-11-23T08:33:11.082Z,1
2018-11-23T08:34:18.308Z,0.9
2018-11-23T08:35:25.516Z,1
2018-11-23T08:36:32.173Z,1
2018-11-23T08:37:38.832Z,0.9
2018-11-23T08:38:45.778Z,0.9
2018-11-23T08:39:52.430Z,0.9
2018-11-23T08:40:59.642Z,1
2018-11-23T08:42:06.311Z,1.1
2018-11-23T08:43:12.984Z,1.1
2018-11-23T08:44:19.914Z,1.2
2018-11-23T08:45:26.849Z,1.2
2018-11-23T08:46:33.784Z,1.2
2018-11-23T08:47:40.726Z,1.2
2018-11-23T08:48:47.936Z,1.3
2018-11-23T08:49:54.619Z,1.2
2018-11-23T08:51:01.821Z,1.2
2018-11-23T08:52:09.037Z,1.2
2018-11-23T08:53:16.249Z,1.2
2018-11-23T08:54:23.451Z,1.3
2018-11-23T08:55:30.377Z,1.3
2018-11-23T08:56:37.328Z,1.3
2018-11-23T08:57:44.537Z,1.3
2018-11-23T08:58:51.465Z,1.4
2018-11-23T08:59:58.666Z,1.4
2018-11-23T09:01:05.330Z,1.4
2018-11-23T09:02:12.269Z,1.4
2018-11-23T09:03:19.233Z,1.4
2018-11-23T09:04:26.430Z,1.5
2018-11-23T09:05:33.373Z,1.4
2018-11-23T09:06:40.574Z,1.5
2018-11-23T09:07:47.491Z,1.4
2018-11-23T09:08:54.430Z,1.4
2018-11-23T09:10:01.115Z,1.5
2018-11-23T09:11:08.318Z,1.5
2018-11-23T09:12:15.535Z,1.4
2018-11-23T09:13:22.488Z,1.4
2018-11-23T09:14:30.097Z,1.4
2018-11-23T09:15:37.038Z,1.4
2018-11-23T09:16:44.251Z,1.4
2018-11-23T09:17:51.453Z,1.4
2018-11-23T09:18:58.405Z,1.5
2018-11-23T09:20:05.615Z,1.5
2018-11-23T09:21:12.560Z,1.5
2018-11-23T09:22:23.762Z,1.5
2018-11-23T09:23:30.467Z,1.4
2018-11-23T09:24:37.392Z,1.5
2018-11-23T09:25:44.590Z,1.5
2018-11-23T09:26:51.797Z,1.5
2018-11-23T09:27:59.016Z,1.6
2018-11-23T09:29:06.224Z,1.6
2018-11-23T09:30:13.164Z,1.6
2018-11-23T09:31:20.087Z,1.7
2018-11-23T09:32:26.757Z,1.7
2018-11-23T09:33:33.679Z,1.6
2018-11-23T09:34:41.343Z,1.6
2018-11-23T09:35:48.559Z,1.6
2018-11-23T09:36:55.802Z,1.6
2018-11-23T09:38:03.005Z,1.6
2018-11-23T09:39:09.674Z,1.6
2018-11-23T09:40:16.938Z,1.6
2018-11-23T09:41:23.877Z,1.7
2018-11-23T09:42:30.801Z,1.6
2018-11-23T09:43:38.023Z,1.5
2018-11-23T09:44:45.091Z,1.5
2018-11-23T09:45:52.035Z,1.5
2018-11-23T09:46:58.960Z,1.5
2018-11-23T09:48:06.173Z,1.6
2018-11-23T09:49:13.382Z,1.6
2018-11-23T09:50:20.356Z,1.5
2018-11-23T09:51:27.282Z,1.5
2018-11-23T09:52:34.506Z,1.5
2018-11-23T09:53:41.437Z,1.6
2018-11-23T09:54:48.663Z,1.6
2018-11-23T09:55:55.595Z,1.5
2018-11-23T09:57:02.804Z,1.6
2018-11-23T09:58:09.741Z,1.6
2018-11-23T09:59:16.417Z,1.6
2018-11-23T10:00:23.616Z,1.5
2018-11-23T10:01:30.837Z,1.6
2018-11-23T10:02:38.041Z,1.7
2018-11-23T10:03:44.974Z,1.6
2018-11-23T10:04:51.951Z,1.6
2018-11-23T10:05:59.214Z,1.6
2018-11-23T10:07:05.871Z,1.6
2018-11-23T10:08:12.811Z,1.6
2018-11-23T10:09:20.016Z,1.7
2018-11-23T10:10:26.960Z,1.7
2018-11-23T10:11:33.647Z,1.8
2018-11-23T10:12:40.859Z,1.8
2018-11-23T10:13:48.068Z,1.9
2018-11-23T10:14:55.318Z,1.9
2018-11-23T10:16:02.251Z,1.9
2018-11-23T10:17:09.466Z,1.9
2018-11-23T10:18:16.673Z,2
2018-11-23T10:19:23.339Z,1.9
2018-11-23T10:20:30.553Z,1.9
2018-11-23T10:21:37.761Z,2
2018-11-23T10:22:44.960Z,2
2018-11-23T10:23:52.185Z,2
2018-11-23T10:24:59.149Z,2
2018-11-23T10:26:06.088Z,2
2018-11-23T10:27:13.289Z,2.1
2018-11-23T10:28:20.268Z,2.1
2018-11-23T10:29:27.196Z,2.1
2018-11-23T10:30:34.398Z,2.2
2018-11-23T10:31:41.598Z,2.2
2018-11-23T10:32:48.024Z,2.1
2018-11-23T10:33:54.668Z,2.1
2018-11-23T10:35:01.314Z,2.2
2018-11-23T10:36:08.519Z,2.2
2018-11-23T10:37:15.736Z,2.3
2018-11-23T10:38:22.937Z,2.3
2018-11-23T10:39:30.138Z,2.3
2018-11-23T10:40:37.342Z,2.3
2018-11-23T10:41:44.558Z,2.3
2018-11-23T10:42:51.760Z,2.4
2018-11-23T10:43:58.720Z,2.3
2018-11-23T10:45:05.147Z,2.3
2018-11-23T10:46:12.106Z,2.3
2018-11-23T10:47:19.038Z,2.3
2018-11-23T10:48:25.991Z,2.3
2018-11-23T10:49:33.191Z,2.4
2018-11-23T10:50:40.432Z,2.4
2018-11-23T10:51:47.624Z,2.4
2018-11-23T10:52:54.553Z,2.4
2018-11-23T10:54:01.754Z,2.4
2018-11-23T10:55:08.697Z,2.3
2018-11-23T10:56:15.383Z,2.4
2018-11-23T10:57:22.584Z,2.4
2018-11-23T10:58:29.800Z,2.4
2018-11-23T10:59:37.020Z,2.4
2018-11-23T11:00:44.074Z,2.3
2018-11-23T11:01:51.007Z,2.2
2018-11-23T11:02:57.933Z,2.2
2018-11-23T11:04:04.608Z,2.2
2018-11-23T11:05:11.534Z,2.3
2018-11-23T11:06:18.476Z,2.4
2018-11-23T11:07:25.133Z,2.5
2018-11-23T11:08:31.803Z,2.4
2018-11-23T11:09:38.742Z,2.4
2018-11-23T11:10:45.970Z,2.4
2018-11-23T11:11:53.172Z,2.5
2018-11-23T11:13:00.111Z,2.4
2018-11-23T11:14:07.049Z,2.3
2018-11-23T11:15:13.714Z,2.2
2018-11-23T11:16:20.922Z,2.2
2018-11-23T11:17:27.875Z,2.3
2018-11-23T11:18:34.810Z,2.3
2018-11-23T11:19:41.225Z,2.4
2018-11-23T11:20:48.160Z,2.4
2018-11-23T11:21:55.104Z,2.5
2018-11-23T11:23:02.310Z,2.6
2018-11-23T11:24:09.267Z,2.6
2018-11-23T11:25:15.938Z,2.7
2018-11-23T11:26:22.879Z,2.7
2018-11-23T11:27:29.530Z,2.7
2018-11-23T11:28:36.749Z,2.7
2018-11-23T11:29:43.418Z,2.7
2018-11-23T11:30:50.623Z,2.7
2018-11-23T11:31:57.832Z,2.7
2018-11-23T11:33:04.768Z,2.7
2018-11-23T11:34:11.978Z,2.6
2018-11-23T11:35:19.195Z,2.6
2018-11-23T11:36:26.405Z,2.7
2018-11-23T11:37:33.629Z,2.5
2018-11-23T11:38:40.562Z,2.5
2018-11-23T11:39:47.774Z,2.4
2018-11-23T11:40:54.716Z,2.4
2018-11-23T11:42:01.927Z,2.3
2018-11-23T11:43:09.131Z,2.3
2018-11-23T11:44:16.096Z,2.4
2018-11-23T11:45:22.738Z,2.5
2018-11-23T11:46:29.680Z,2.5
2018-11-23T11:47:36.882Z,2.5
2018-11-23T11:48:43.807Z,2.6
2018-11-23T11:49:50.739Z,2.6
2018-11-23T11:51:19.263Z,2.6
2018-11-23T11:52:25.931Z,2.6
2018-11-23T11:53:32.872Z,2.6
2018-11-23T11:54:39.806Z,2.7
2018-11-23T11:55:47.027Z,2.7
2018-11-23T11:56:54.232Z,2.6
2018-11-23T11:58:01.182Z,2.6
2018-11-23T11:59:08.382Z,2.6
2018-11-23T12:00:15.601Z,2.6
2018-11-23T12:01:22.846Z,2.7
2018-11-23T12:02:30.058Z,2.7
2018-11-23T12:03:36.998Z,2.6
2018-11-23T12:04:43.934Z,2.6
2018-11-23T12:05:51.134Z,2.6
2018-11-23T12:06:58.366Z,2.6
2018-11-23T12:08:05.305Z,2.7
2018-11-23T12:09:12.262Z,2.6
2018-11-23T12:10:19.202Z,2.5
2018-11-23T12:11:26.423Z,2.5
2018-11-23T12:12:33.076Z,2.6
2018-11-23T12:13:40.034Z,2.6
2018-11-23T12:14:47.230Z,2.7
2018-11-23T12:15:54.476Z,2.7
2018-11-23T12:17:01.680Z,2.7
2018-11-23T12:18:08.637Z,2.7
2018-11-23T12:19:15.615Z,2.7
2018-11-23T12:20:22.564Z,2.7
2018-11-23T12:21:29.231Z,2.8
2018-11-23T12:22:36.481Z,2.6
2018-11-23T12:23:43.687Z,2.6
2018-11-23T12:24:50.621Z,2.6
2018-11-23T12:25:57.290Z,2.6
2018-11-23T12:27:04.515Z,2.6
2018-11-23T12:28:11.453Z,2.7
2018-11-23T12:29:18.398Z,2.7
2018-11-23T12:30:25.333Z,2.7
2018-11-23T12:31:32.550Z,2.8
2018-11-23T12:32:39.493Z,2.8
2018-11-23T12:33:46.346Z,2.8
2018-11-23T12:34:53.279Z,2.9
2018-11-23T12:36:00.242Z,2.8
2018-11-23T12:37:07.172Z,2.9
2018-11-23T12:38:14.386Z,2.9
2018-11-23T12:39:21.314Z,2.8
2018-11-23T12:40:28.534Z,2.9
2018-11-23T12:41:35.744Z,2.9
2018-11-23T12:42:42.676Z,2.9
2018-11-23T12:43:49.071Z,2.9
2018-11-23T12:44:56.012Z,2.9
2018-11-23T12:46:02.653Z,2.9
2018-11-23T12:47:09.874Z,3
2018-11-23T12:48:17.092Z,2.8
2018-11-23T12:49:23.776Z,2.7
2018-11-23T12:50:30.991Z,2.7
2018-11-23T12:51:38.204Z,2.7
2018-11-23T12:52:45.140Z,2.7
2018-11-23T12:53:52.360Z,2.7
2018-11-23T12:54:59.012Z,2.7
2018-11-23T12:56:06.216Z,2.8
2018-11-23T12:57:13.800Z,2.8
2018-11-23T12:58:20.745Z,2.8
2018-11-23T12:59:27.694Z,2.8
2018-11-23T13:00:34.914Z,2.8
2018-11-23T13:01:41.849Z,2.8
2018-11-23T13:02:49.067Z,2.8
2018-11-23T13:03:56.265Z,2.8
2018-11-23T13:05:03.689Z,2.8
2018-11-23T13:06:10.615Z,2.9
2018-11-23T13:07:17.294Z,2.9
2018-11-23T13:08:24.506Z,2.9
2018-11-23T13:09:31.725Z,2.9
2018-11-23T13:10:38.932Z,3
2018-11-23T13:11:45.903Z,3
2018-11-23T13:12:53.112Z,3
2018-11-23T13:14:00.314Z,2.9
2018-11-23T13:15:07.525Z,3
2018-11-23T13:16:14.472Z,2.8
2018-11-23T13:17:21.694Z,2.8
2018-11-23T13:18:28.917Z,2.8
2018-11-23T13:19:35.851Z,2.8
2018-11-23T13:20:42.809Z,2.8
2018-11-23T13:21:49.765Z,2.9
2018-11-23T13:22:56.966Z,2.9
2018-11-23T13:24:03.911Z,2.9
2018-11-23T13:25:11.120Z,2.9
2018-11-23T13:26:18.056Z,3
2018-11-23T13:27:24.994Z,3
2018-11-23T13:28:31.935Z,3
2018-11-23T13:29:38.604Z,2.9
2018-11-23T13:30:45.805Z,2.8
2018-11-23T13:31:53.026Z,2.8
2018-11-23T13:33:00.244Z,2.8
2018-11-23T13:34:07.469Z,2.8
2018-11-23T13:35:14.397Z,2.8
2018-11-23T13:36:21.348Z,2.7
2018-11-23T13:37:28.283Z,2.8
2018-11-23T13:38:35.512Z,2.8
2018-11-23T13:39:42.461Z,2.8
2018-11-23T13:40:49.138Z,2.8
2018-11-23T13:41:55.529Z,2.8
2018-11-23T13:43:02.476Z,2.8
2018-11-23T13:44:09.686Z,2.8
2018-11-23T13:45:16.903Z,2.7
2018-11-23T13:46:24.126Z,2.7
2018-11-23T13:47:31.084Z,2.8
2018-11-23T13:48:38.290Z,2.7
2018-11-23T13:49:44.984Z,2.7
2018-11-23T13:50:52.185Z,2.8
2018-11-23T13:51:59.146Z,2.8
2018-11-23T13:53:06.349Z,2.8
2018-11-23T13:54:13.299Z,2.8
2018-11-23T13:55:19.983Z,2.9
2018-11-23T13:56:26.926Z,2.8
2018-11-23T13:57:33.871Z,2.8
2018-11-23T13:58:40.842Z,2.8
2018-11-23T13:59:48.043Z,2.8
2018-11-23T14:00:55.013Z,2.8
2018-11-23T14:02:01.398Z,2.8
2018-11-23T14:03:08.075Z,2.8
2018-11-23T14:04:14.739Z,2.7
2018-11-23T14:05:21.682Z,2.7
2018-11-23T14:06:28.881Z,2.7
2018-11-23T14:07:35.838Z,2.7
2018-11-23T14:08:43.045Z,2.7
2018-11-23T14:09:49.980Z,2.7
2018-11-23T14:10:56.364Z,2.7
2018-11-23T14:12:03.316Z,2.7
2018-11-23T14:13:12.075Z,2.7
2018-11-23T14:14:19.015Z,2.8
2018-11-23T14:15:26.224Z,2.8
2018-11-23T14:16:33.446Z,2.7
2018-11-23T14:17:40.380Z,2.6
2018-11-23T14:18:47.321Z,2.5
2018-11-23T14:19:54.258Z,2.5
2018-11-23T14:21:01.214Z,2.5
2018-11-23T14:22:08.159Z,2.5
2018-11-23T14:23:15.092Z,2.5
2018-11-23T14:24:22.038Z,2.5
2018-11-23T14:25:29.003Z,2.6
2018-11-23T14:26:35.953Z,2.6
2018-11-23T14:27:42.904Z,2.6
2018-11-23T14:28:49.848Z,2.6
2018-11-23T14:29:56.799Z,2.5
2018-11-23T14:31:03.741Z,2.5
2018-11-23T14:32:10.685Z,2.5
2018-11-23T14:33:17.619Z,2.5
2018-11-23T14:34:24.598Z,2.5
2018-11-23T14:35:31.545Z,2.5
2018-11-23T14:36:38.772Z,2.5
2018-11-23T14:37:45.979Z,2.5
2018-11-23T14:38:52.917Z,2.5
2018-11-23T14:39:59.582Z,2.5
2018-11-23T14:41:06.516Z,2.5
2018-11-23T14:42:13.450Z,2.5
2018-11-23T14:43:20.687Z,2.5
2018-11-23T14:44:27.889Z,2.5
2018-11-23T14:45:34.841Z,2.5
2018-11-23T14:46:41.766Z,2.5
2018-11-23T14:47:48.440Z,2.5
2018-11-23T14:48:55.645Z,2.4
2018-11-23T14:50:02.593Z,2.4
2018-11-23T14:51:09.525Z,2.4
2018-11-23T14:52:16.751Z,2.4
2018-11-23T14:53:23.970Z,2.4
2018-11-23T14:54:31.198Z,2.4
2018-11-23T14:55:38.132Z,2.4
2018-11-23T14:56:45.077Z,2.4
2018-11-23T14:57:52.298Z,2.4
2018-11-23T14:58:59.525Z,2.4
2018-11-23T15:00:06.732Z,2.4
2018-11-23T15:01:13.952Z,2.4
2018-11-23T15:02:21.153Z,2.4
2018-11-23T15:03:28.108Z,2.4
2018-11-23T15:04:35.047Z,2.4
2018-11-23T15:05:42.264Z,2.5
2018-11-23T15:06:49.473Z,2.5
2018-11-23T15:07:56.421Z,2.4
2018-11-23T15:09:03.359Z,2.4
2018-11-23T15:10:10.563Z,2.4
2018-11-23T15:11:17.289Z,2.4
2018-11-23T15:12:24.235Z,2.4
2018-11-23T15:13:31.171Z,2.4